HRIHERMISTON MUNI
METARs for airports near HRI, sorted by distance:
N 0 nm 644' KHRI 222253Z 19003KT 7SM BKN004 02/01 A3055
SE 19 nm 1496' KPDT 222253Z 30007KT 10SM CLR 07/03 A3050
N 26 nm 410' KPSC 222253Z 35007KT 10SM CLR 05/00 A3058
N 28 nm 394' KRLD 222255Z 00000KT 10SM CLR 05/01 A3058
E 43 nm 1194' KALW 222312Z 30004KT 1/4SM FG VV001 01/01 A3053
SE 61 nm 2717' KLGD 222256Z 00000KT 10SM CLR 04/M01 A3047
NW 69 nm 1098' KYKM 222253Z 00000KT 10SM CLR 04/M03 A3053
W 81 nm 246' KDLS 222303Z 00000KT 10SM OVC010 04/01 A3056
N 82 nm 1188' KMWH 222252Z 04003KT 10SM OVC006 01/M02 A3056
SE 85 nm 3373' KBKE 222253Z 00000KT 10SM CLR 02/M03 A3045
S 86 nm 3702' KGCD 222255Z 00000KT 10SM CLR 07/M04 A3043
E 88 nm 4126' KJSY 222255Z 10SM CLR 02/M04 A3045
N 89 nm 1276' KEPH 222253Z 01010KT 10SM BKN006 M01/M03 A3055
NW 89 nm 1763' KELN 222253Z 00000KT 10SM CLR 00/M05 A3051
E 99 nm 1442' KLWS 222256Z 00000KT 7SM OVC005 01/M01 A3054
TAFs for airports near HRI, sorted by distance:
SE 19 nm 1496' KPDT KPDT 222128Z 2221/2318 VRB05KT P6SM FEW250
  FM230600 33004KT 6SM BR FEW001 SCT200
  FM230800 VRB03KT 4SM BR SCT001 SCT200
  FM231000 VRB02KT 1/2SM FZFG VV002
N 26 nm 410' KPSC TAF
  AMD KPSC 222125Z 2221/2318 VRB04KT P6SM SCT010
  FM230300 VRB04KT 4SM BR SCT002
  FM230500 VRB04KT 1/2SM FZFG BKN002
E 43 nm 1194' KALW TAF
  AMD KALW 222122Z 2221/2318 VRB04KT 1/2SM FG VV002
  TEMPO 2221/2301 3SM BR OVC005
  FM230400 VRB03KT 1/2SM FZFG VV002
NW 69 nm 1098' KYKM KYKM 221738Z 2218/2318 VRB04KT P6SM FEW250
  FM230800 28004KT 4SM BR SCT001 SCT200
  FM231400 29002KT 1SM BR BKN005
W 81 nm 246' KDLS TAF
  AMD KDLS 222111Z 2221/2318 VRB03KT P6SM OVC007
  FM230600 10003KT 5SM BR OVC010
  FM231400 10003KT 1SM BR OVC005
N 82 nm 1188' KMWH KMWH 222047Z 2221/2318 33004KT 1/4SM FZFG VV002
  TEMPO 2223/2303 1/2SM FZFG OVC002
  FM230400 35004KT 1/4SM FZFG VV001
SE 85 nm 3373' KBKE KBKE 221734Z 2218/2318 VRB03KT P6SM SKC
E 99 nm 1442' KLWS KLWS 221754Z 2218/2318 00000KT 2SM BR OVC003
  FM222200 VRB03KT 6SM BR BKN003
  FM230200 VRB02KT 1/2SM FG OVC002

Shortcut to this page: http://wxbay.com.

Data may contain errors.